createdAt,value
2022-08-05T00:01:20.207Z,18.55
2022-08-05T00:11:24.026Z,18.52
2022-08-05T00:21:35.989Z,18.45
2022-08-05T00:31:53.028Z,18.34
2022-08-05T00:41:57.097Z,18.04
2022-08-05T00:51:59.433Z,17.96
2022-08-05T01:02:01.816Z,18.08
2022-08-05T01:12:18.218Z,18.07
2022-08-05T01:22:34.102Z,17.94
2022-08-05T01:32:40.900Z,17.79
2022-08-05T01:42:51.163Z,17.94
2022-08-05T01:52:55.992Z,17.91
2022-08-05T02:03:04.501Z,17.74
2022-08-05T02:13:19.000Z,17.80
2022-08-05T02:23:29.276Z,17.82
2022-08-05T02:33:40.708Z,17.92
2022-08-05T02:44:05.966Z,17.89
2022-08-05T02:54:35.592Z,17.57
2022-08-05T03:04:36.385Z,17.45
2022-08-05T03:14:46.122Z,17.29
2022-08-05T03:24:52.239Z,17.08
2022-08-05T03:34:54.862Z,17.15
2022-08-05T03:44:57.414Z,17.26
2022-08-05T03:56:01.972Z,17.27
2022-08-05T04:05:34.076Z,17.37
2022-08-05T04:15:37.039Z,17.69
2022-08-05T04:25:56.693Z,18.00
2022-08-05T04:36:11.187Z,18.36
2022-08-05T04:46:27.949Z,18.89
2022-08-05T04:56:34.876Z,19.38
2022-08-05T05:06:49.377Z,19.79
2022-08-05T05:17:01.090Z,20.30
2022-08-05T05:27:04.138Z,20.97
2022-08-05T05:37:06.483Z,21.83
2022-08-05T05:47:21.399Z,22.72
2022-08-05T05:57:24.582Z,23.49
2022-08-05T06:07:57.535Z,24.08
2022-08-05T06:18:03.828Z,24.76
2022-08-05T06:28:12.050Z,25.26
2022-08-05T06:38:36.487Z,26.03
2022-08-05T06:48:55.760Z,26.46
2022-08-05T06:59:01.545Z,26.81
2022-08-05T07:09:04.948Z,27.67
2022-08-05T07:19:07.301Z,28.20
2022-08-05T07:29:10.496Z,28.86
2022-08-05T07:39:24.704Z,29.28
2022-08-05T07:49:43.497Z,29.86
2022-08-05T07:59:57.622Z,30.28
2022-08-05T08:10:00.174Z,30.41
2022-08-05T08:20:21.617Z,31.33
2022-08-05T08:30:40.751Z,32.03
2022-08-05T08:40:51.688Z,31.93
2022-08-05T08:51:22.465Z,32.89
2022-08-05T09:01:18.854Z,33.15
2022-08-05T09:11:51.698Z,33.58
2022-08-05T09:22:23.073Z,33.70
2022-08-05T09:32:51.218Z,34.61
2022-08-05T09:42:42.176Z,35.12
2022-08-05T09:52:57.980Z,34.74
2022-08-05T10:03:09.969Z,35.66
2022-08-05T10:13:25.794Z,36.10
2022-08-05T10:23:58.754Z,36.10
2022-08-05T10:42:33.882Z,37.51
2022-08-05T10:52:54.021Z,36.06
2022-08-05T11:03:25.285Z,36.72
2022-08-05T11:13:54.944Z,37.72
2022-08-05T11:24:29.799Z,38.17
2022-08-05T11:34:51.446Z,38.06
2022-08-05T11:45:05.455Z,38.81
2022-08-05T11:55:10.610Z,38.97
2022-08-05T12:05:36.478Z,38.20
2022-08-05T12:15:49.836Z,38.41
2022-08-05T12:25:56.969Z,38.76
2022-08-05T12:36:01.172Z,38.26
2022-08-05T12:46:03.864Z,39.20
2022-08-05T12:56:35.365Z,38.56
2022-08-05T13:06:51.575Z,38.05
2022-08-05T13:16:57.012Z,38.16
2022-08-05T13:26:59.898Z,38.19
2022-08-05T13:37:04.055Z,37.90
2022-08-05T13:47:09.770Z,37.96
2022-08-05T13:57:14.938Z,37.80
2022-08-05T14:07:26.514Z,37.46
2022-08-05T14:17:45.803Z,37.76
2022-08-05T14:27:51.580Z,36.83
2022-08-05T14:37:55.680Z,37.10
2022-08-05T14:48:05.455Z,37.21
2022-08-05T14:58:13.707Z,37.27
2022-08-05T15:08:58.463Z,36.74
2022-08-05T15:18:39.695Z,36.46
2022-08-05T15:28:43.971Z,36.44
2022-08-05T15:38:47.075Z,36.05
2022-08-05T15:48:57.958Z,35.58
2022-08-05T15:59:07.401Z,35.65
2022-08-05T16:09:10.164Z,35.44
2022-08-05T16:19:25.475Z,34.83
2022-08-05T16:29:37.344Z,34.46
2022-08-05T16:40:05.567Z,33.55
2022-08-05T16:50:06.954Z,33.13
2022-08-05T17:00:14.266Z,32.49
2022-08-05T17:10:30.473Z,31.97
2022-08-05T17:20:33.729Z,31.64
2022-08-05T17:30:42.496Z,31.19
2022-08-05T17:40:52.818Z,30.63
2022-08-05T17:50:55.678Z,29.88
2022-08-05T18:00:58.660Z,28.97
2022-08-05T18:11:04.071Z,28.31
2022-08-05T18:21:13.407Z,27.68
2022-08-05T18:31:24.132Z,27.33
2022-08-05T18:41:53.481Z,27.08
2022-08-05T18:52:10.831Z,26.45
2022-08-05T19:02:28.210Z,26.18
2022-08-05T19:12:39.150Z,25.87
2022-08-05T19:22:44.795Z,25.50
2022-08-05T19:32:48.106Z,25.22
2022-08-05T19:43:04.607Z,25.15
2022-08-05T19:53:10.442Z,24.67
2022-08-05T20:03:14.034Z,24.50
2022-08-05T20:13:17.741Z,24.13
2022-08-05T20:23:20.902Z,23.90
2022-08-05T20:33:23.776Z,23.65
2022-08-05T20:43:39.814Z,23.76
2022-08-05T20:53:56.185Z,23.64
2022-08-05T21:03:59.677Z,23.10
2022-08-05T21:14:02.691Z,23.25
2022-08-05T21:24:07.410Z,23.17
2022-08-05T21:34:16.054Z,22.99
2022-08-05T21:44:18.865Z,22.78
2022-08-05T21:54:30.818Z,22.71
2022-08-05T22:04:33.623Z,22.49
2022-08-05T22:14:37.905Z,22.49
2022-08-05T22:24:59.534Z,22.37
2022-08-05T22:35:02.269Z,22.37
2022-08-05T22:45:07.076Z,21.79
2022-08-05T22:55:19.149Z,21.95
2022-08-05T23:05:23.898Z,21.74
2022-08-05T23:15:35.364Z,21.58
2022-08-05T23:25:51.550Z,21.86
2022-08-05T23:35:56.700Z,21.29
2022-08-05T23:45:59.711Z,21.64
2022-08-05T23:56:03.675Z,21.59
